createdAt,value
2023-01-29T00:00:01.420Z,9.719228
2023-01-29T00:01:01.428Z,9.719296
2023-01-29T00:02:01.465Z,9.719316
2023-01-29T00:03:01.404Z,9.719197
2023-01-29T00:04:02.376Z,9.719188
2023-01-29T00:05:13.019Z,9.719098
2023-01-29T00:06:03.385Z,9.719087
2023-01-29T00:07:01.354Z,9.719083
2023-01-29T00:08:01.338Z,9.718997
2023-01-29T00:09:01.330Z,9.718974
2023-01-29T00:10:01.335Z,9.719064
2023-01-29T00:11:01.317Z,9.719143
2023-01-29T00:12:01.300Z,9.719059
2023-01-29T00:13:01.285Z,9.719081
2023-01-29T00:14:01.278Z,9.719057
2023-01-29T00:15:01.262Z,9.719111
2023-01-29T00:16:01.268Z,9.719019
2023-01-29T00:17:01.460Z,9.718962
2023-01-29T00:18:01.247Z,9.719024
2023-01-29T00:19:01.223Z,9.719064
2023-01-29T00:20:01.222Z,9.719023
2023-01-29T00:21:01.214Z,9.719105
2023-01-29T00:22:01.224Z,9.719205
2023-01-29T00:23:01.180Z,9.719049
2023-01-29T00:24:01.287Z,9.719079
2023-01-29T00:25:01.180Z,9.719004
2023-01-29T00:26:01.157Z,9.719086
2023-01-29T00:27:01.143Z,9.719074
2023-01-29T00:28:01.165Z,9.718980
2023-01-29T00:29:01.126Z,9.718995
2023-01-29T00:30:01.119Z,9.719120
2023-01-29T00:31:01.164Z,9.719103
2023-01-29T00:32:01.244Z,9.719106
2023-01-29T00:33:01.114Z,9.719214
2023-01-29T00:34:01.104Z,9.719153
2023-01-29T00:35:01.071Z,9.719142
2023-01-29T00:36:01.063Z,9.719239
2023-01-29T00:37:01.053Z,9.719212
2023-01-29T00:38:01.043Z,9.719247
2023-01-29T00:39:01.046Z,9.719169
2023-01-29T00:40:01.045Z,9.719277
2023-01-29T00:41:01.018Z,9.719287
2023-01-29T00:42:01.015Z,9.719210
2023-01-29T00:43:00.997Z,9.719177
2023-01-29T00:44:01.005Z,9.719041
2023-01-29T00:45:00.979Z,9.719160
2023-01-29T00:46:01.010Z,9.719256
2023-01-29T00:47:00.956Z,9.719126
2023-01-29T00:48:00.958Z,9.719278
2023-01-29T00:49:01.011Z,9.719229
2023-01-29T00:50:01.930Z,9.719331
2023-01-29T00:51:00.936Z,9.719234
2023-01-29T00:52:00.920Z,9.719377
2023-01-29T00:53:00.899Z,9.719311
2023-01-29T00:54:00.883Z,9.719317
2023-01-29T00:55:00.935Z,9.719248
2023-01-29T00:56:00.861Z,9.719234
2023-01-29T00:57:00.861Z,9.719250
2023-01-29T00:58:00.848Z,9.719254
2023-01-29T00:59:00.869Z,9.719254
2023-01-29T01:00:00.866Z,9.719254
2023-01-29T01:01:00.883Z,9.719254
2023-01-29T01:02:00.851Z,9.719254
2023-01-29T01:03:00.808Z,9.719254
2023-01-29T01:04:00.795Z,9.719254
2023-01-29T01:05:32.727Z,9.719254
2023-01-29T01:06:00.784Z,9.719411
2023-01-29T01:07:00.770Z,9.719390
2023-01-29T01:08:00.816Z,9.719177
2023-01-29T01:09:00.783Z,9.719192
2023-01-29T01:10:00.796Z,9.719287
2023-01-29T01:11:00.733Z,9.719217
2023-01-29T01:12:00.758Z,9.719152
2023-01-29T01:13:00.723Z,9.719402
2023-01-29T01:14:00.737Z,9.719273
2023-01-29T01:15:00.744Z,9.719548
2023-01-29T01:16:00.927Z,9.721204
2023-01-29T01:17:00.710Z,9.726168
2023-01-29T01:18:00.679Z,9.721343
2023-01-29T01:19:00.717Z,9.721184
2023-01-29T01:20:00.667Z,9.721672
2023-01-29T01:21:00.739Z,9.720813
2023-01-29T01:22:00.641Z,9.721066
2023-01-29T01:23:00.619Z,9.719566
2023-01-29T01:24:00.675Z,9.719329
2023-01-29T01:25:00.614Z,9.719242
2023-01-29T01:26:00.652Z,9.719081
2023-01-29T01:27:00.616Z,9.719088
2023-01-29T01:28:01.450Z,9.719192
2023-01-29T01:29:00.563Z,9.718972
2023-01-29T01:30:00.591Z,9.719083
2023-01-29T01:31:00.600Z,9.719170
2023-01-29T01:32:00.625Z,9.719223
2023-01-29T01:33:00.550Z,9.719125
2023-01-29T01:34:00.530Z,9.719109
2023-01-29T01:35:01.541Z,9.719181
2023-01-29T01:36:00.549Z,9.719173
2023-01-29T01:37:00.496Z,9.719234
2023-01-29T01:38:00.491Z,9.719211
2023-01-29T01:39:00.471Z,9.719266
2023-01-29T01:40:00.499Z,9.719138
2023-01-29T01:41:00.493Z,9.718963
2023-01-29T01:42:00.457Z,9.719220
2023-01-29T01:43:00.447Z,9.719135
2023-01-29T01:44:00.431Z,9.719186
2023-01-29T01:45:00.400Z,9.719490
2023-01-29T01:46:00.549Z,9.719305
2023-01-29T01:47:00.449Z,9.719112
2023-01-29T01:48:00.377Z,9.719073
2023-01-29T01:49:00.408Z,9.719218
2023-01-29T01:50:00.367Z,9.719263
2023-01-29T01:51:00.363Z,9.719176
2023-01-29T01:52:00.346Z,9.719265
2023-01-29T01:53:00.329Z,9.719302
2023-01-29T01:54:00.334Z,9.719425
2023-01-29T01:55:00.312Z,9.719573
2023-01-29T01:56:00.333Z,9.719481
2023-01-29T01:57:00.298Z,9.719481
2023-01-29T01:58:01.303Z,9.719481
2023-01-29T01:59:00.370Z,9.719481
2023-01-29T02:00:00.267Z,9.719481
2023-01-29T02:01:00.307Z,9.719481
2023-01-29T02:02:00.331Z,9.719506
2023-01-29T02:03:00.232Z,9.719534
2023-01-29T02:04:00.247Z,9.719470
2023-01-29T02:05:00.243Z,9.719216
2023-01-29T02:06:00.240Z,9.719311
2023-01-29T02:07:00.219Z,9.719120
2023-01-29T02:08:00.208Z,9.719503
2023-01-29T02:09:00.192Z,9.719454
2023-01-29T02:10:00.174Z,9.719530
2023-01-29T02:11:00.161Z,9.719407
2023-01-29T02:12:00.166Z,9.719372
2023-01-29T02:13:00.167Z,9.719377
2023-01-29T02:14:00.141Z,9.719419
2023-01-29T02:15:00.138Z,9.719478
2023-01-29T02:16:00.113Z,9.719607
2023-01-29T02:17:00.124Z,9.719628
2023-01-29T02:18:00.134Z,9.719626
2023-01-29T02:19:00.129Z,9.719566
2023-01-29T02:20:00.107Z,9.719399
2023-01-29T02:21:00.073Z,9.719298
2023-01-29T02:22:00.048Z,9.719426
2023-01-29T02:23:02.045Z,9.719284
2023-01-29T02:24:00.173Z,9.718998
2023-01-29T02:25:00.061Z,9.718964
2023-01-29T02:26:00.025Z,9.718923
2023-01-29T02:27:00.033Z,9.719056
2023-01-29T02:28:00.025Z,9.719038
2023-01-29T02:29:00.004Z,9.718921
2023-01-29T02:29:59.966Z,9.719085
2023-01-29T02:31:00.019Z,9.719049
2023-01-29T02:31:59.975Z,9.719141
2023-01-29T02:32:59.971Z,9.719284
2023-01-29T02:33:59.951Z,9.719227
2023-01-29T02:34:59.933Z,9.719088
2023-01-29T02:35:59.962Z,9.719063
2023-01-29T02:36:59.929Z,9.719020
2023-01-29T02:38:00.920Z,9.718910
2023-01-29T02:38:59.914Z,9.718778
2023-01-29T02:39:59.909Z,9.718791
2023-01-29T02:40:59.905Z,9.718670
2023-01-29T02:41:59.867Z,9.718749
2023-01-29T02:42:59.861Z,9.719026
2023-01-29T02:43:59.841Z,9.719064
2023-01-29T02:44:59.835Z,9.719020
2023-01-29T02:45:59.925Z,9.718969
2023-01-29T02:46:59.835Z,9.719154
2023-01-29T02:47:59.805Z,9.719080
2023-01-29T02:48:59.814Z,9.719088
2023-01-29T02:49:59.790Z,9.719037
2023-01-29T02:50:59.791Z,9.719036
2023-01-29T02:51:59.787Z,9.718843
2023-01-29T02:52:59.772Z,9.718873
2023-01-29T02:53:59.760Z,9.718920
2023-01-29T02:54:59.747Z,9.718949
2023-01-29T02:55:59.736Z,9.718942
2023-01-29T02:56:59.764Z,9.719108
2023-01-29T02:57:59.707Z,9.719159
2023-01-29T02:58:59.723Z,9.719110
2023-01-29T02:59:59.687Z,9.719204
2023-01-29T03:00:59.756Z,9.719032
2023-01-29T03:01:59.773Z,9.719046
2023-01-29T03:02:59.659Z,9.719198
2023-01-29T03:03:59.679Z,9.719366
2023-01-29T03:04:59.627Z,9.719454
2023-01-29T03:05:59.632Z,9.719438
2023-01-29T03:06:59.632Z,9.719316
2023-01-29T03:07:59.599Z,9.719287
2023-01-29T03:08:59.630Z,9.719207
2023-01-29T03:09:59.604Z,9.719363
2023-01-29T03:10:59.585Z,9.719275
2023-01-29T03:11:59.571Z,9.719333
2023-01-29T03:12:59.576Z,9.719153
2023-01-29T03:13:59.569Z,9.719234
2023-01-29T03:14:59.540Z,9.719157
2023-01-29T03:15:59.528Z,9.719187
2023-01-29T03:16:59.524Z,9.719117
2023-01-29T03:17:59.509Z,9.719137
2023-01-29T03:18:59.523Z,9.719168
2023-01-29T03:19:59.490Z,9.719204
2023-01-29T03:20:59.483Z,9.719164
2023-01-29T03:21:59.734Z,9.719155
2023-01-29T03:22:59.455Z,9.719103
2023-01-29T03:23:59.526Z,9.719016
2023-01-29T03:24:59.447Z,9.719024
2023-01-29T03:25:59.453Z,9.719022
2023-01-29T03:26:59.416Z,9.719051
2023-01-29T03:27:59.409Z,9.719053
2023-01-29T03:28:59.396Z,9.719001
2023-01-29T03:29:59.382Z,9.719056
2023-01-29T03:30:59.491Z,9.719002
2023-01-29T03:31:59.447Z,9.719018
2023-01-29T03:32:59.359Z,9.719032
2023-01-29T03:33:59.346Z,9.719082
2023-01-29T03:34:59.337Z,9.719090
2023-01-29T03:35:59.349Z,9.719028
2023-01-29T03:36:59.339Z,9.719048
2023-01-29T03:37:59.322Z,9.719025
2023-01-29T03:38:59.310Z,9.718994
2023-01-29T03:39:59.281Z,9.718992
2023-01-29T03:40:59.284Z,9.718996
2023-01-29T03:41:59.303Z,9.718993
2023-01-29T03:42:59.331Z,9.719046
2023-01-29T03:43:59.260Z,9.719058
2023-01-29T03:45:00.259Z,9.719045
2023-01-29T03:45:59.298Z,9.719015
2023-01-29T03:46:59.259Z,9.718962
2023-01-29T03:47:59.218Z,9.718966
2023-01-29T03:48:59.241Z,9.719010
2023-01-29T03:49:59.191Z,9.718896
2023-01-29T03:50:59.197Z,9.719120
2023-01-29T03:51:59.174Z,9.719103
2023-01-29T03:52:59.175Z,9.719119
2023-01-29T03:53:59.173Z,9.719207
2023-01-29T03:54:59.147Z,9.719127
2023-01-29T03:55:59.139Z,9.719124
2023-01-29T03:56:59.158Z,9.719056
2023-01-29T03:57:59.111Z,9.719049
2023-01-29T03:58:59.266Z,9.719105
2023-01-29T03:59:59.098Z,9.719197
2023-01-29T04:00:59.084Z,9.718908
2023-01-29T04:01:59.113Z,9.719498
2023-01-29T04:02:59.074Z,9.719066
2023-01-29T04:03:59.112Z,9.718928
2023-01-29T04:04:59.055Z,9.719062
2023-01-29T04:05:59.038Z,9.719155
2023-01-29T04:06:59.088Z,9.718954
2023-01-29T04:07:59.030Z,9.719003
2023-01-29T04:08:59.004Z,9.719032
2023-01-29T04:09:59.001Z,9.719130
2023-01-29T04:10:59.000Z,9.719066
2023-01-29T04:11:58.976Z,9.719069
2023-01-29T04:12:59.008Z,9.718941
2023-01-29T04:13:58.956Z,9.718960
2023-01-29T04:14:58.954Z,9.719107
2023-01-29T04:15:58.923Z,9.719073
2023-01-29T04:16:58.936Z,9.719109
2023-01-29T04:17:58.951Z,9.719170
2023-01-29T04:18:58.907Z,9.719155
2023-01-29T04:19:58.924Z,9.719106
2023-01-29T04:20:58.898Z,9.719088
2023-01-29T04:21:58.888Z,9.718982
2023-01-29T04:22:58.898Z,9.718969
2023-01-29T04:23:58.949Z,9.719099
2023-01-29T04:24:58.857Z,9.719133
2023-01-29T04:25:58.848Z,9.719028
2023-01-29T04:26:58.823Z,9.719014
2023-01-29T04:27:58.840Z,9.719091
2023-01-29T04:28:58.844Z,9.719036
2023-01-29T04:29:58.799Z,9.719116
2023-01-29T04:30:58.965Z,9.719156
2023-01-29T04:31:58.851Z,9.719121
2023-01-29T04:32:58.784Z,9.719110
2023-01-29T04:33:58.757Z,9.719200
2023-01-29T04:34:58.764Z,9.719207
2023-01-29T04:35:58.781Z,9.719212
2023-01-29T04:36:58.754Z,9.719147
2023-01-29T04:37:58.724Z,9.719144
2023-01-29T04:38:59.727Z,9.719243
2023-01-29T04:39:58.688Z,9.719188
2023-01-29T04:40:59.712Z,9.719131
2023-01-29T04:41:58.701Z,9.719144
2023-01-29T04:42:58.696Z,9.719068
2023-01-29T04:43:58.692Z,9.719070
2023-01-29T04:44:58.677Z,9.719132
2023-01-29T04:45:58.654Z,9.719198
2023-01-29T04:46:58.722Z,9.719225
2023-01-29T04:47:58.646Z,9.719190
2023-01-29T04:48:58.628Z,9.719090
2023-01-29T04:49:58.611Z,9.719176
2023-01-29T04:50:58.592Z,9.718988
2023-01-29T04:51:58.600Z,9.719151
2023-01-29T04:52:58.640Z,9.719212
2023-01-29T04:53:58.580Z,9.719070
2023-01-29T04:54:58.559Z,9.719091
2023-01-29T04:55:58.552Z,9.719141
2023-01-29T04:56:58.538Z,9.719110
2023-01-29T04:57:58.571Z,9.719107
2023-01-29T04:58:58.532Z,9.719096
2023-01-29T04:59:58.520Z,9.719123
2023-01-29T05:00:58.535Z,9.719087
2023-01-29T05:01:58.539Z,9.719026
2023-01-29T05:02:58.576Z,9.719091
2023-01-29T05:03:58.491Z,9.719110
2023-01-29T05:04:58.477Z,9.719110
2023-01-29T05:05:58.479Z,9.719110
2023-01-29T05:06:58.453Z,9.719110
2023-01-29T05:07:58.457Z,9.719110
2023-01-29T05:08:58.443Z,9.719110
2023-01-29T05:09:58.429Z,9.719110
2023-01-29T05:10:58.412Z,9.719110
2023-01-29T05:11:58.429Z,9.719110
2023-01-29T05:12:58.387Z,9.719110
2023-01-29T05:13:58.373Z,9.719110
2023-01-29T05:14:58.490Z,9.719110
2023-01-29T05:15:58.464Z,9.718969
2023-01-29T05:16:58.370Z,9.719026
2023-01-29T05:17:58.397Z,9.719103
2023-01-29T05:18:58.330Z,9.719170
2023-01-29T05:19:58.344Z,9.719153
2023-01-29T05:20:58.326Z,9.719197
2023-01-29T05:21:58.317Z,9.719343
2023-01-29T05:22:58.326Z,9.719240
2023-01-29T05:23:58.298Z,9.719218
2023-01-29T05:24:58.272Z,9.719147
2023-01-29T05:25:58.270Z,9.719075
2023-01-29T05:26:58.264Z,9.719009
2023-01-29T05:27:58.270Z,9.719026
2023-01-29T05:28:58.243Z,9.719034
2023-01-29T05:29:58.237Z,9.719000
2023-01-29T05:30:58.426Z,9.719044
2023-01-29T05:31:58.264Z,9.719195
2023-01-29T05:32:58.202Z,9.719222
2023-01-29T05:33:58.201Z,9.719288
2023-01-29T05:34:58.207Z,9.719129
2023-01-29T05:35:58.200Z,9.719186
2023-01-29T05:36:58.173Z,9.719287
2023-01-29T05:37:58.149Z,9.719269
2023-01-29T05:38:58.144Z,9.719200
2023-01-29T05:39:58.138Z,9.719239
2023-01-29T05:40:58.134Z,9.719259
2023-01-29T05:41:58.120Z,9.719312
2023-01-29T05:42:58.109Z,9.719256
2023-01-29T05:43:58.081Z,9.719241
2023-01-29T05:44:58.122Z,9.719216
2023-01-29T05:45:58.111Z,9.719186
2023-01-29T05:46:58.066Z,9.719329
2023-01-29T05:47:58.067Z,9.719441
2023-01-29T05:48:58.072Z,9.719441
2023-01-29T05:49:58.041Z,9.719441
2023-01-29T05:50:58.059Z,9.719441
2023-01-29T05:51:58.038Z,9.719441
2023-01-29T05:52:58.013Z,9.719441
2023-01-29T05:53:58.996Z,9.719441
2023-01-29T05:54:58.018Z,9.719441
2023-01-29T05:55:57.981Z,9.719441
2023-01-29T05:56:57.980Z,9.719441
2023-01-29T05:57:57.967Z,9.719441
2023-01-29T05:58:57.972Z,9.719441
2023-01-29T05:59:57.945Z,9.719522
2023-01-29T06:00:57.927Z,9.719318
2023-01-29T06:01:57.966Z,9.719391
2023-01-29T06:02:57.936Z,9.718963
2023-01-29T06:03:57.926Z,9.719435
2023-01-29T06:04:57.891Z,9.719406
2023-01-29T06:05:57.876Z,9.719319
2023-01-29T06:06:57.876Z,9.719290
2023-01-29T06:07:57.853Z,9.719612
2023-01-29T06:08:57.850Z,9.719367
2023-01-29T06:09:57.872Z,9.719377
2023-01-29T06:10:57.824Z,9.719318
2023-01-29T06:11:57.832Z,9.719335
2023-01-29T06:12:57.834Z,9.719254
2023-01-29T06:13:57.800Z,9.719400
2023-01-29T06:14:57.798Z,9.719322
2023-01-29T06:15:57.886Z,9.719213
2023-01-29T06:16:57.775Z,9.719323
2023-01-29T06:17:57.792Z,9.719352
2023-01-29T06:18:57.750Z,9.719380
2023-01-29T06:19:57.752Z,9.719340
2023-01-29T06:20:57.725Z,9.719452
2023-01-29T06:21:57.732Z,9.719281
2023-01-29T06:22:57.743Z,9.719361
2023-01-29T06:23:57.718Z,9.719387
2023-01-29T06:24:57.690Z,9.719471
2023-01-29T06:25:57.684Z,9.719470
2023-01-29T06:26:57.671Z,9.719316
2023-01-29T06:27:59.453Z,9.719449
2023-01-29T06:28:58.680Z,9.719465
2023-01-29T06:29:58.633Z,9.719439
2023-01-29T06:31:01.282Z,9.719746
2023-01-29T06:31:57.732Z,9.719514
2023-01-29T06:32:57.610Z,9.719747
2023-01-29T06:33:57.621Z,9.720154
2023-01-29T06:34:57.602Z,9.720195
2023-01-29T06:35:57.586Z,9.719866
2023-01-29T06:36:57.578Z,9.719799
2023-01-29T06:37:57.566Z,9.719744
2023-01-29T06:38:57.583Z,9.719864
2023-01-29T06:39:57.556Z,9.719788
2023-01-29T06:40:57.533Z,9.719805
2023-01-29T06:41:57.563Z,9.719873
2023-01-29T06:42:57.504Z,9.719998
2023-01-29T06:43:57.546Z,9.719894
2023-01-29T06:44:57.506Z,9.719798
2023-01-29T06:45:57.524Z,9.719695
2023-01-29T06:46:57.481Z,9.719652
2023-01-29T06:47:58.841Z,9.719537
2023-01-29T06:48:57.468Z,9.719499
2023-01-29T06:49:57.483Z,9.719941
2023-01-29T06:50:57.446Z,9.719571
2023-01-29T06:51:57.431Z,9.719753
2023-01-29T06:52:57.421Z,9.719585
2023-01-29T06:53:57.449Z,9.719442
2023-01-29T06:54:57.398Z,9.719823
2023-01-29T06:55:57.376Z,9.719627
2023-01-29T06:56:57.398Z,9.719583
2023-01-29T06:57:57.410Z,9.719375
2023-01-29T06:58:57.410Z,9.719513
2023-01-29T06:59:57.371Z,9.719335
2023-01-29T07:00:57.374Z,9.719219
2023-01-29T07:01:57.356Z,9.719228
2023-01-29T07:02:57.323Z,9.719410
2023-01-29T07:03:57.326Z,9.719378
2023-01-29T07:04:57.334Z,9.719170
2023-01-29T07:06:29.184Z,9.719180
2023-01-29T07:06:57.271Z,9.719172
2023-01-29T07:07:57.262Z,9.719198
2023-01-29T07:08:57.261Z,9.719116
2023-01-29T07:09:57.264Z,9.719131
2023-01-29T07:10:57.251Z,9.719198
2023-01-29T07:11:57.231Z,9.719209
2023-01-29T07:12:57.212Z,9.719165
2023-01-29T07:13:57.204Z,9.719160
2023-01-29T07:14:57.194Z,9.719118
2023-01-29T07:15:57.231Z,9.719119
2023-01-29T07:16:57.173Z,9.719210
2023-01-29T07:17:57.189Z,9.719241
2023-01-29T07:18:57.162Z,9.719227
2023-01-29T07:19:57.154Z,9.719227
2023-01-29T07:20:57.133Z,9.719185
2023-01-29T07:21:57.151Z,9.719267
2023-01-29T07:22:57.123Z,9.719280
2023-01-29T07:23:57.129Z,9.719331
2023-01-29T07:24:57.117Z,9.719259
2023-01-29T07:25:57.108Z,9.719212
2023-01-29T07:26:57.071Z,9.719224
2023-01-29T07:27:58.401Z,9.719185
2023-01-29T07:28:57.064Z,9.719280
2023-01-29T07:29:57.055Z,9.719229
2023-01-29T07:30:57.100Z,9.719200
2023-01-29T07:31:57.135Z,9.719163
2023-01-29T07:32:57.026Z,9.719190
2023-01-29T07:33:57.021Z,9.719139
2023-01-29T07:34:56.995Z,9.719144
2023-01-29T07:35:57.004Z,9.719174
2023-01-29T07:36:56.990Z,9.719316
2023-01-29T07:37:56.970Z,9.719179
2023-01-29T07:38:56.970Z,9.719226
2023-01-29T07:39:56.939Z,9.719214
2023-01-29T07:40:56.961Z,9.719271
2023-01-29T07:41:56.958Z,9.719140
2023-01-29T07:42:56.920Z,9.719514
2023-01-29T07:43:56.907Z,9.719529
2023-01-29T07:44:56.898Z,9.719412
2023-01-29T07:45:57.115Z,9.719153
2023-01-29T07:46:56.899Z,9.719186
2023-01-29T07:47:56.862Z,9.719168
2023-01-29T07:48:56.874Z,9.719247
2023-01-29T07:49:56.867Z,9.719172
2023-01-29T07:50:56.836Z,9.719204
2023-01-29T07:51:56.838Z,9.719117
2023-01-29T07:52:56.823Z,9.719156
2023-01-29T07:53:56.832Z,9.719153
2023-01-29T07:54:56.820Z,9.719209
2023-01-29T07:55:56.838Z,9.719067
2023-01-29T07:56:56.783Z,9.719197
2023-01-29T07:57:56.772Z,9.719114
2023-01-29T07:58:56.790Z,9.719144
2023-01-29T07:59:56.761Z,9.719120
2023-01-29T08:00:56.813Z,9.719127
2023-01-29T08:01:56.776Z,9.719126
2023-01-29T08:02:56.727Z,9.719143
2023-01-29T08:03:56.715Z,9.719127
2023-01-29T08:04:56.722Z,9.719116
2023-01-29T08:05:56.700Z,9.719083
2023-01-29T08:06:56.708Z,9.719107
2023-01-29T08:08:06.160Z,9.719056
2023-01-29T08:08:58.670Z,9.719069
2023-01-29T08:09:56.661Z,9.719113
2023-01-29T08:10:56.660Z,9.719110
2023-01-29T08:11:56.664Z,9.719120
2023-01-29T08:12:56.639Z,9.719156
2023-01-29T08:13:56.627Z,9.719131
2023-01-29T08:14:56.625Z,9.719118
2023-01-29T08:15:56.625Z,9.719155
2023-01-29T08:16:56.600Z,9.719157
2023-01-29T08:17:58.313Z,9.719149
2023-01-29T08:18:56.599Z,9.719026
2023-01-29T08:19:56.582Z,9.719146
2023-01-29T08:20:56.596Z,9.719197
2023-01-29T08:21:56.543Z,9.719130
2023-01-29T08:22:56.559Z,9.719128
2023-01-29T08:23:56.570Z,9.719187
2023-01-29T08:25:06.434Z,9.719212
2023-01-29T08:25:58.544Z,9.719262
2023-01-29T08:26:56.508Z,9.719254
2023-01-29T08:27:56.493Z,9.719156
2023-01-29T08:28:56.486Z,9.719161
2023-01-29T08:29:56.468Z,9.719111
2023-01-29T08:30:56.577Z,9.719153
2023-01-29T08:31:56.502Z,9.719163
2023-01-29T08:32:56.430Z,9.719124
2023-01-29T08:33:56.428Z,9.719159
2023-01-29T08:34:56.435Z,9.719180
2023-01-29T08:35:56.399Z,9.719124
2023-01-29T08:36:56.420Z,9.719186
2023-01-29T08:37:56.400Z,9.719108
2023-01-29T08:38:56.385Z,9.719032
2023-01-29T08:39:56.380Z,9.719094
2023-01-29T08:40:56.355Z,9.719049
2023-01-29T08:41:56.346Z,9.719128
2023-01-29T08:42:56.332Z,9.719181
2023-01-29T08:43:56.338Z,9.719105
2023-01-29T08:44:56.340Z,9.719183
2023-01-29T08:45:56.389Z,9.719155
2023-01-29T08:46:56.315Z,9.719090
2023-01-29T08:47:56.313Z,9.719152
2023-01-29T08:48:56.284Z,9.719136
2023-01-29T08:49:56.289Z,9.719175
2023-01-29T08:50:56.265Z,9.719136
2023-01-29T08:51:56.271Z,9.719098
2023-01-29T08:52:56.238Z,9.719116
2023-01-29T08:53:56.254Z,9.719045
2023-01-29T08:54:56.215Z,9.719196
2023-01-29T08:55:56.225Z,9.719163
2023-01-29T08:56:56.197Z,9.719137
2023-01-29T08:57:56.196Z,9.719075
2023-01-29T08:58:57.296Z,9.718942
2023-01-29T08:59:56.172Z,9.718981
2023-01-29T09:00:56.214Z,9.719166
2023-01-29T09:01:56.149Z,9.719216
2023-01-29T09:02:56.150Z,9.719126
2023-01-29T09:03:56.168Z,9.719183
2023-01-29T09:04:56.130Z,9.719022
2023-01-29T09:05:56.111Z,9.718828
2023-01-29T09:06:56.107Z,9.718994
2023-01-29T09:07:56.093Z,9.719101
2023-01-29T09:08:56.106Z,9.719123
2023-01-29T09:09:56.089Z,9.719150
2023-01-29T09:10:56.108Z,9.719035
2023-01-29T09:11:56.062Z,9.718839
2023-01-29T09:12:56.052Z,9.719009
2023-01-29T09:13:56.030Z,9.719049
2023-01-29T09:14:56.044Z,9.719012
2023-01-29T09:15:57.370Z,9.719121
2023-01-29T09:16:56.066Z,9.719152
2023-01-29T09:17:56.033Z,9.719041
2023-01-29T09:18:56.026Z,9.719056
2023-01-29T09:19:55.981Z,9.719107
2023-01-29T09:20:55.983Z,9.719166
2023-01-29T09:21:55.986Z,9.719142
2023-01-29T09:22:55.967Z,9.719125
2023-01-29T09:23:55.945Z,9.719161
2023-01-29T09:24:55.934Z,9.719164
2023-01-29T09:25:55.940Z,9.718973
2023-01-29T09:26:55.908Z,9.719041
2023-01-29T09:27:55.889Z,9.719254
2023-01-29T09:28:55.897Z,9.719193
2023-01-29T09:29:55.886Z,9.719246
2023-01-29T09:30:55.953Z,9.719227
2023-01-29T09:31:55.982Z,9.719186
2023-01-29T09:32:55.870Z,9.719280
2023-01-29T09:33:55.876Z,9.719481
2023-01-29T09:34:55.848Z,9.719178
2023-01-29T09:35:55.852Z,9.719090
2023-01-29T09:36:55.809Z,9.719070
2023-01-29T09:37:55.805Z,9.719220
2023-01-29T09:38:55.794Z,9.719220
2023-01-29T09:39:55.788Z,9.718940
2023-01-29T09:40:55.793Z,9.719145
2023-01-29T09:41:55.803Z,9.719469
2023-01-29T09:42:55.775Z,9.718890
2023-01-29T09:43:55.745Z,9.719055
2023-01-29T09:44:55.751Z,9.719017
2023-01-29T09:45:55.742Z,9.718944
2023-01-29T09:46:55.737Z,9.719007
2023-01-29T09:47:55.706Z,9.718967
2023-01-29T09:48:55.729Z,9.718856
2023-01-29T09:49:55.712Z,9.719177
2023-01-29T09:50:55.683Z,9.719090
2023-01-29T09:51:55.674Z,9.719153
2023-01-29T09:52:55.690Z,9.719235
2023-01-29T09:53:55.663Z,9.719178
2023-01-29T09:54:55.638Z,9.719098
2023-01-29T09:55:55.666Z,9.719169
2023-01-29T09:56:55.647Z,9.719296
2023-01-29T09:57:55.620Z,9.719055
2023-01-29T09:58:55.612Z,9.719489
2023-01-29T09:59:55.607Z,9.718823
2023-01-29T10:00:55.604Z,9.719109
2023-01-29T10:01:55.706Z,9.719254
2023-01-29T10:02:55.589Z,9.718919
2023-01-29T10:03:55.558Z,9.719169
2023-01-29T10:04:55.547Z,9.719026
2023-01-29T10:05:55.555Z,9.719316
2023-01-29T10:06:55.532Z,9.718999
2023-01-29T10:07:55.550Z,9.719232
2023-01-29T10:08:55.517Z,9.719025
2023-01-29T10:09:55.497Z,9.719095
2023-01-29T10:10:55.488Z,9.719626
2023-01-29T10:11:58.004Z,9.719183
2023-01-29T10:12:55.501Z,9.719390
2023-01-29T10:13:55.473Z,9.719203
2023-01-29T10:14:55.463Z,9.719256
2023-01-29T10:15:55.479Z,9.719142
2023-01-29T10:16:55.506Z,9.719333
2023-01-29T10:17:55.421Z,9.719069
2023-01-29T10:18:55.417Z,9.719032
2023-01-29T10:19:55.403Z,9.718925
2023-01-29T10:20:55.400Z,9.719409
2023-01-29T10:21:55.398Z,9.719419
2023-01-29T10:22:55.371Z,9.719199
2023-01-29T10:23:55.388Z,9.719063
2023-01-29T10:24:55.368Z,9.719055
2023-01-29T10:25:55.345Z,9.719164
2023-01-29T10:26:55.341Z,9.719307
2023-01-29T10:27:55.329Z,9.719040
2023-01-29T10:28:55.392Z,9.718897
2023-01-29T10:29:55.312Z,9.719234
2023-01-29T10:30:55.450Z,9.719360
2023-01-29T10:31:55.398Z,9.719246
2023-01-29T10:32:55.282Z,9.719339
2023-01-29T10:34:02.092Z,9.719360
2023-01-29T10:34:56.248Z,9.719432
2023-01-29T10:35:55.932Z,9.719337
2023-01-29T10:36:56.238Z,9.719184
2023-01-29T10:37:55.225Z,9.719156
2023-01-29T10:38:55.237Z,9.718998
2023-01-29T10:39:55.211Z,9.718994
2023-01-29T10:40:55.195Z,9.719099
2023-01-29T10:41:55.209Z,9.719086
2023-01-29T10:42:55.178Z,9.719039
2023-01-29T10:43:55.165Z,9.719048
2023-01-29T10:44:55.168Z,9.718936
2023-01-29T10:45:55.134Z,9.718970
2023-01-29T10:46:55.132Z,9.719052
2023-01-29T10:47:55.129Z,9.719316
2023-01-29T10:48:55.119Z,9.719272
2023-01-29T10:49:55.170Z,9.719203
2023-01-29T10:50:55.101Z,9.719218
2023-01-29T10:51:55.094Z,9.719204
2023-01-29T10:52:57.045Z,9.719234
2023-01-29T10:53:55.065Z,9.719260
2023-01-29T10:54:55.086Z,9.719162
2023-01-29T10:55:55.058Z,9.719084
2023-01-29T10:56:55.042Z,9.719173
2023-01-29T10:57:55.027Z,9.719145
2023-01-29T10:58:55.082Z,9.719134
2023-01-29T10:59:55.011Z,9.719162
2023-01-29T11:00:55.013Z,9.719283
2023-01-29T11:01:55.092Z,9.719249
2023-01-29T11:02:55.099Z,9.719030
2023-01-29T11:03:55.965Z,9.719124
2023-01-29T11:04:54.964Z,9.719113
2023-01-29T11:05:54.980Z,9.718953
2023-01-29T11:06:54.950Z,9.719114
2023-01-29T11:07:54.957Z,9.719339
2023-01-29T11:08:54.936Z,9.719169
2023-01-29T11:09:54.927Z,9.719251
2023-01-29T11:10:54.932Z,9.719180
2023-01-29T11:11:54.907Z,9.719241
2023-01-29T11:12:54.910Z,9.719236
2023-01-29T11:13:54.895Z,9.719310
2023-01-29T11:14:54.884Z,9.719419
2023-01-29T11:15:54.867Z,9.719429
2023-01-29T11:16:55.444Z,9.719129
2023-01-29T11:17:54.862Z,9.719129
2023-01-29T11:18:54.835Z,9.719045
2023-01-29T11:19:54.825Z,9.719061
2023-01-29T11:20:54.810Z,9.719183
2023-01-29T11:21:54.804Z,9.719122
2023-01-29T11:22:54.804Z,9.718846
2023-01-29T11:23:54.797Z,9.719318
2023-01-29T11:24:54.788Z,9.719071
2023-01-29T11:25:54.762Z,9.719138
2023-01-29T11:26:54.767Z,9.719311
2023-01-29T11:27:54.751Z,9.719236
2023-01-29T11:28:54.748Z,9.719129
2023-01-29T11:29:54.745Z,9.719363
2023-01-29T11:30:54.765Z,9.719279
2023-01-29T11:31:54.748Z,9.719023
2023-01-29T11:32:54.715Z,9.719171
2023-01-29T11:33:54.681Z,9.718899
2023-01-29T11:34:54.678Z,9.718915
2023-01-29T11:35:54.665Z,9.719079
2023-01-29T11:36:54.701Z,9.719047
2023-01-29T11:37:54.650Z,9.719041
2023-01-29T11:38:54.638Z,9.718807
2023-01-29T11:39:54.628Z,9.719151
2023-01-29T11:40:54.613Z,9.719319
2023-01-29T11:41:54.648Z,9.719274
2023-01-29T11:42:54.617Z,9.719211
2023-01-29T11:43:54.592Z,9.719210